Port Graham, Alaska
Current Conditions -  °F | °C
As of 7:53 AM on Thursday 23 Oct 2014 (Local Time) from PAHO Reporting Station
Clear Clear  
Wind Chill: 30°   Ceiling: Unl
Heat Index: 30°   Visibility: 10mi
Dew Point: 24°   Wind: 0mph
Humidity: 79%   Direction: NA
Pressure: 29.67"   Gusts: NA
Location:  59.7153°N, 150.773°W
Report Text: PAHO 231553Z 00000KT 10SM CLR M01/M04 A2967 RMK AO2 SLP048 I1001 T10111044
Loading
Personal Weather Stations






























Interactive Weather Map
Tropical Storm Tracking
New forecast layout! Learn more

10-Day Weather Forecast

Advertisements
Track Severe Weather on mobile